sensor_id;sensor_type;location;lat;lon;timestamp;P1;durP1;ratioP1;P2;durP2;ratioP2
23001;SDS011;11667;51.706;4.856;2023-02-15T00:01:20;158.30;;;62.20;;
23001;SDS011;11667;51.706;4.856;2023-02-15T00:03:50;166.60;;;63.60;;
23001;SDS011;11667;51.706;4.856;2023-02-15T00:06:19;172.68;;;63.98;;
23001;SDS011;11667;51.706;4.856;2023-02-15T00:08:49;168.15;;;63.70;;
23001;SDS011;11667;51.706;4.856;2023-02-15T00:11:18;171.65;;;62.70;;
23001;SDS011;11667;51.706;4.856;2023-02-15T00:13:50;163.97;;;61.80;;
23001;SDS011;11667;51.706;4.856;2023-02-15T00:16:19;173.75;;;65.05;;
23001;SDS011;11667;51.706;4.856;2023-02-15T00:18:48;172.15;;;64.03;;
23001;SDS011;11667;51.706;4.856;2023-02-15T00:21:20;173.38;;;64.50;;
23001;SDS011;11667;51.706;4.856;2023-02-15T00:23:49;171.22;;;60.55;;
23001;SDS011;11667;51.706;4.856;2023-02-15T00:26:19;173.72;;;63.80;;
23001;SDS011;11667;51.706;4.856;2023-02-15T00:28:48;171.75;;;61.85;;
23001;SDS011;11667;51.706;4.856;2023-02-15T00:31:18;173.97;;;64.03;;
23001;SDS011;11667;51.706;4.856;2023-02-15T00:33:48;172.57;;;62.40;;
23001;SDS011;11667;51.706;4.856;2023-02-15T00:36:18;169.50;;;62.43;;
23001;SDS011;11667;51.706;4.856;2023-02-15T00:38:48;172.95;;;60.17;;
23001;SDS011;11667;51.706;4.856;2023-02-15T00:41:17;181.22;;;63.50;;
23001;SDS011;11667;51.706;4.856;2023-02-15T00:43:47;170.55;;;60.75;;
23001;SDS011;11667;51.706;4.856;2023-02-15T00:46:16;157.60;;;59.58;;
23001;SDS011;11667;51.706;4.856;2023-02-15T00:48:46;175.18;;;63.00;;
23001;SDS011;11667;51.706;4.856;2023-02-15T00:51:15;176.55;;;63.30;;
23001;SDS011;11667;51.706;4.856;2023-02-15T00:53:45;173.25;;;62.20;;
23001;SDS011;11667;51.706;4.856;2023-02-15T00:56:15;177.07;;;62.55;;
23001;SDS011;11667;51.706;4.856;2023-02-15T00:58:45;158.15;;;59.23;;
23001;SDS011;11667;51.706;4.856;2023-02-15T01:01:15;171.15;;;61.48;;
23001;SDS011;11667;51.706;4.856;2023-02-15T01:03:46;170.55;;;60.92;;
23001;SDS011;11667;51.706;4.856;2023-02-15T01:06:16;165.47;;;60.95;;
23001;SDS011;11667;51.706;4.856;2023-02-15T01:08:46;166.70;;;60.83;;
23001;SDS011;11667;51.706;4.856;2023-02-15T01:11:21;172.57;;;59.98;;
23001;SDS011;11667;51.706;4.856;2023-02-15T01:13:54;178.72;;;60.23;;
23001;SDS011;11667;51.706;4.856;2023-02-15T01:16:25;172.93;;;62.03;;
23001;SDS011;11667;51.706;4.856;2023-02-15T01:18:55;162.25;;;59.93;;
23001;SDS011;11667;51.706;4.856;2023-02-15T01:21:25;172.70;;;61.15;;
23001;SDS011;11667;51.706;4.856;2023-02-15T01:23:55;168.68;;;60.38;;
23001;SDS011;11667;51.706;4.856;2023-02-15T01:26:24;176.55;;;61.92;;
23001;SDS011;11667;51.706;4.856;2023-02-15T01:28:54;170.32;;;59.40;;
23001;SDS011;11667;51.706;4.856;2023-02-15T01:31:23;165.80;;;59.88;;
23001;SDS011;11667;51.706;4.856;2023-02-15T01:33:53;174.50;;;59.03;;
23001;SDS011;11667;51.706;4.856;2023-02-15T01:36:22;160.52;;;57.88;;
23001;SDS011;11667;51.706;4.856;2023-02-15T01:38:53;165.07;;;59.13;;
23001;SDS011;11667;51.706;4.856;2023-02-15T01:41:24;164.13;;;61.65;;
23001;SDS011;11667;51.706;4.856;2023-02-15T01:43:55;169.57;;;60.50;;
23001;SDS011;11667;51.706;4.856;2023-02-15T01:46:27;168.97;;;60.08;;
23001;SDS011;11667;51.706;4.856;2023-02-15T01:49:24;154.90;;;58.87;;
23001;SDS011;11667;51.706;4.856;2023-02-15T01:51:40;176.47;;;60.88;;
23001;SDS011;11667;51.706;4.856;2023-02-15T01:54:16;190.18;;;63.52;;
23001;SDS011;11667;51.706;4.856;2023-02-15T01:56:47;165.00;;;58.70;;
23001;SDS011;11667;51.706;4.856;2023-02-15T01:59:19;175.30;;;61.40;;
23001;SDS011;11667;51.706;4.856;2023-02-15T02:01:49;176.20;;;61.13;;
23001;SDS011;11667;51.706;4.856;2023-02-15T02:04:31;181.90;;;63.45;;
23001;SDS011;11667;51.706;4.856;2023-02-15T02:07:06;182.68;;;60.38;;
23001;SDS011;11667;51.706;4.856;2023-02-15T02:09:37;176.75;;;58.40;;
23001;SDS011;11667;51.706;4.856;2023-02-15T02:12:07;161.30;;;58.25;;
23001;SDS011;11667;51.706;4.856;2023-02-15T02:14:38;170.85;;;60.45;;
23001;SDS011;11667;51.706;4.856;2023-02-15T02:17:22;164.45;;;57.60;;
23001;SDS011;11667;51.706;4.856;2023-02-15T02:33:57;171.20;;;59.25;;
23001;SDS011;11667;51.706;4.856;2023-02-15T02:36:40;168.55;;;58.45;;
23001;SDS011;11667;51.706;4.856;2023-02-15T02:39:22;181.82;;;60.80;;
23001;SDS011;11667;51.706;4.856;2023-02-15T02:42:04;180.67;;;61.50;;
23001;SDS011;11667;51.706;4.856;2023-02-15T02:44:43;167.40;;;59.30;;
23001;SDS011;11667;51.706;4.856;2023-02-15T02:47:26;177.35;;;60.48;;
23001;SDS011;11667;51.706;4.856;2023-02-15T02:50:00;175.85;;;61.20;;
23001;SDS011;11667;51.706;4.856;2023-02-15T02:52:39;179.65;;;60.85;;
23001;SDS011;11667;51.706;4.856;2023-02-15T03:01:01;171.57;;;58.75;;
23001;SDS011;11667;51.706;4.856;2023-02-15T03:03:37;166.47;;;57.80;;
23001;SDS011;11667;51.706;4.856;2023-02-15T03:06:19;175.22;;;59.18;;
23001;SDS011;11667;51.706;4.856;2023-02-15T03:08:53;179.32;;;59.95;;
23001;SDS011;11667;51.706;4.856;2023-02-15T03:11:26;172.25;;;58.75;;
23001;SDS011;11667;51.706;4.856;2023-02-15T03:13:56;183.80;;;59.67;;
23001;SDS011;11667;51.706;4.856;2023-02-15T03:16:26;176.32;;;59.88;;
23001;SDS011;11667;51.706;4.856;2023-02-15T03:18:58;178.72;;;59.95;;
23001;SDS011;11667;51.706;4.856;2023-02-15T03:21:31;178.85;;;61.42;;
23001;SDS011;11667;51.706;4.856;2023-02-15T03:24:11;186.10;;;60.35;;
23001;SDS011;11667;51.706;4.856;2023-02-15T03:26:45;175.93;;;61.80;;
23001;SDS011;11667;51.706;4.856;2023-02-15T03:29:15;179.03;;;59.77;;
23001;SDS011;11667;51.706;4.856;2023-02-15T03:31:46;177.47;;;60.30;;
23001;SDS011;11667;51.706;4.856;2023-02-15T03:36:47;177.05;;;59.42;;
23001;SDS011;11667;51.706;4.856;2023-02-15T03:42:17;179.30;;;60.23;;
23001;SDS011;11667;51.706;4.856;2023-02-15T03:45:03;179.40;;;59.45;;
23001;SDS011;11667;51.706;4.856;2023-02-15T03:47:38;178.85;;;61.10;;
23001;SDS011;11667;51.706;4.856;2023-02-15T03:52:58;162.97;;;55.52;;
23001;SDS011;11667;51.706;4.856;2023-02-15T03:55:29;188.97;;;60.95;;
23001;SDS011;11667;51.706;4.856;2023-02-15T03:57:58;180.57;;;61.45;;
23001;SDS011;11667;51.706;4.856;2023-02-15T04:00:49;180.52;;;59.27;;
23001;SDS011;11667;51.706;4.856;2023-02-15T04:03:41;182.02;;;60.58;;
23001;SDS011;11667;51.706;4.856;2023-02-15T04:06:11;188.50;;;61.00;;
23001;SDS011;11667;51.706;4.856;2023-02-15T04:08:40;178.90;;;58.60;;
23001;SDS011;11667;51.706;4.856;2023-02-15T04:11:28;179.93;;;58.78;;
23001;SDS011;11667;51.706;4.856;2023-02-15T04:13:57;177.68;;;59.83;;
23001;SDS011;11667;51.706;4.856;2023-02-15T04:16:28;197.15;;;61.48;;
23001;SDS011;11667;51.706;4.856;2023-02-15T04:18:57;180.37;;;61.23;;
23001;SDS011;11667;51.706;4.856;2023-02-15T04:21:45;194.37;;;61.48;;
23001;SDS011;11667;51.706;4.856;2023-02-15T04:24:32;186.50;;;59.03;;
23001;SDS011;11667;51.706;4.856;2023-02-15T04:27:19;173.30;;;59.45;;
23001;SDS011;11667;51.706;4.856;2023-02-15T04:29:48;182.32;;;60.28;;
23001;SDS011;11667;51.706;4.856;2023-02-15T04:32:18;189.00;;;59.85;;
23001;SDS011;11667;51.706;4.856;2023-02-15T04:34:47;195.28;;;62.35;;
23001;SDS011;11667;51.706;4.856;2023-02-15T04:37:16;191.47;;;62.05;;
23001;SDS011;11667;51.706;4.856;2023-02-15T04:39:46;202.97;;;61.25;;
23001;SDS011;11667;51.706;4.856;2023-02-15T04:42:17;195.40;;;63.35;;
23001;SDS011;11667;51.706;4.856;2023-02-15T04:44:46;192.50;;;60.90;;
23001;SDS011;11667;51.706;4.856;2023-02-15T04:47:15;182.45;;;61.70;;
23001;SDS011;11667;51.706;4.856;2023-02-15T04:49:45;182.97;;;61.13;;
23001;SDS011;11667;51.706;4.856;2023-02-15T04:52:14;195.32;;;62.53;;
23001;SDS011;11667;51.706;4.856;2023-02-15T04:54:45;197.50;;;62.33;;
23001;SDS011;11667;51.706;4.856;2023-02-15T04:57:16;198.87;;;61.77;;
23001;SDS011;11667;51.706;4.856;2023-02-15T04:59:45;194.47;;;59.27;;
23001;SDS011;11667;51.706;4.856;2023-02-15T05:02:15;190.75;;;59.77;;
23001;SDS011;11667;51.706;4.856;2023-02-15T05:04:44;195.00;;;61.35;;
23001;SDS011;11667;51.706;4.856;2023-02-15T05:07:13;189.60;;;59.40;;
23001;SDS011;11667;51.706;4.856;2023-02-15T05:09:43;177.20;;;58.73;;
23001;SDS011;11667;51.706;4.856;2023-02-15T05:12:12;189.55;;;59.83;;
23001;SDS011;11667;51.706;4.856;2023-02-15T05:14:41;173.60;;;58.38;;
23001;SDS011;11667;51.706;4.856;2023-02-15T05:17:11;182.68;;;57.40;;
23001;SDS011;11667;51.706;4.856;2023-02-15T05:19:40;186.52;;;59.75;;
23001;SDS011;11667;51.706;4.856;2023-02-15T05:22:09;185.70;;;59.93;;
23001;SDS011;11667;51.706;4.856;2023-02-15T05:24:39;168.65;;;57.25;;
23001;SDS011;11667;51.706;4.856;2023-02-15T05:27:26;186.20;;;58.28;;
23001;SDS011;11667;51.706;4.856;2023-02-15T05:30:13;172.65;;;56.98;;
23001;SDS011;11667;51.706;4.856;2023-02-15T05:32:43;171.45;;;58.50;;
23001;SDS011;11667;51.706;4.856;2023-02-15T05:35:14;182.50;;;58.23;;
23001;SDS011;11667;51.706;4.856;2023-02-15T05:37:43;187.18;;;58.87;;
23001;SDS011;11667;51.706;4.856;2023-02-15T05:40:13;178.93;;;58.90;;
23001;SDS011;11667;51.706;4.856;2023-02-15T05:42:42;187.70;;;58.42;;
23001;SDS011;11667;51.706;4.856;2023-02-15T05:45:12;192.57;;;60.17;;
23001;SDS011;11667;51.706;4.856;2023-02-15T05:47:41;171.72;;;60.35;;
23001;SDS011;11667;51.706;4.856;2023-02-15T05:50:11;179.25;;;57.98;;
23001;SDS011;11667;51.706;4.856;2023-02-15T05:52:41;181.40;;;59.33;;
23001;SDS011;11667;51.706;4.856;2023-02-15T05:55:10;190.77;;;61.23;;
23001;SDS011;11667;51.706;4.856;2023-02-15T05:57:40;193.43;;;62.48;;
23001;SDS011;11667;51.706;4.856;2023-02-15T06:00:10;189.47;;;62.25;;
23001;SDS011;11667;51.706;4.856;2023-02-15T06:02:41;179.63;;;59.77;;
23001;SDS011;11667;51.706;4.856;2023-02-15T06:05:10;213.55;;;63.52;;
23001;SDS011;11667;51.706;4.856;2023-02-15T06:07:42;196.00;;;59.83;;
23001;SDS011;11667;51.706;4.856;2023-02-15T06:10:12;202.80;;;62.30;;
23001;SDS011;11667;51.706;4.856;2023-02-15T06:12:43;194.43;;;62.43;;
23001;SDS011;11667;51.706;4.856;2023-02-15T06:15:13;201.15;;;64.92;;
23001;SDS011;11667;51.706;4.856;2023-02-15T06:17:42;213.15;;;66.20;;
23001;SDS011;11667;51.706;4.856;2023-02-15T06:20:12;216.42;;;66.85;;
23001;SDS011;11667;51.706;4.856;2023-02-15T06:22:41;214.60;;;68.33;;
23001;SDS011;11667;51.706;4.856;2023-02-15T06:25:11;227.47;;;67.87;;
23001;SDS011;11667;51.706;4.856;2023-02-15T06:27:43;219.15;;;70.20;;
23001;SDS011;11667;51.706;4.856;2023-02-15T06:30:12;214.88;;;69.12;;
23001;SDS011;11667;51.706;4.856;2023-02-15T06:32:42;206.53;;;67.92;;
23001;SDS011;11667;51.706;4.856;2023-02-15T06:35:11;223.72;;;69.30;;
23001;SDS011;11667;51.706;4.856;2023-02-15T06:37:41;221.97;;;69.87;;
23001;SDS011;11667;51.706;4.856;2023-02-15T06:40:10;231.85;;;70.20;;
23001;SDS011;11667;51.706;4.856;2023-02-15T06:42:46;229.82;;;72.55;;
23001;SDS011;11667;51.706;4.856;2023-02-15T06:45:11;222.60;;;71.20;;
23001;SDS011;11667;51.706;4.856;2023-02-15T06:47:40;226.77;;;70.42;;
23001;SDS011;11667;51.706;4.856;2023-02-15T06:50:10;237.63;;;71.20;;
23001;SDS011;11667;51.706;4.856;2023-02-15T06:52:40;229.85;;;71.80;;
23001;SDS011;11667;51.706;4.856;2023-02-15T06:55:09;237.88;;;72.87;;
23001;SDS011;11667;51.706;4.856;2023-02-15T06:57:38;231.40;;;72.05;;
23001;SDS011;11667;51.706;4.856;2023-02-15T07:00:08;231.10;;;73.00;;
23001;SDS011;11667;51.706;4.856;2023-02-15T07:02:38;218.27;;;71.45;;
23001;SDS011;11667;51.706;4.856;2023-02-15T07:05:07;229.38;;;71.37;;
23001;SDS011;11667;51.706;4.856;2023-02-15T07:07:37;227.25;;;70.30;;
23001;SDS011;11667;51.706;4.856;2023-02-15T07:10:06;227.62;;;73.02;;
23001;SDS011;11667;51.706;4.856;2023-02-15T07:12:36;231.07;;;71.45;;
23001;SDS011;11667;51.706;4.856;2023-02-15T07:15:14;243.25;;;75.15;;
23001;SDS011;11667;51.706;4.856;2023-02-15T07:17:44;242.93;;;78.75;;
23001;SDS011;11667;51.706;4.856;2023-02-15T07:20:20;248.93;;;80.47;;
23001;SDS011;11667;51.706;4.856;2023-02-15T07:22:50;235.48;;;75.80;;
23001;SDS011;11667;51.706;4.856;2023-02-15T07:25:20;242.03;;;77.27;;
23001;SDS011;11667;51.706;4.856;2023-02-15T07:27:55;235.13;;;77.17;;
23001;SDS011;11667;51.706;4.856;2023-02-15T07:30:26;228.35;;;75.55;;
23001;SDS011;11667;51.706;4.856;2023-02-15T07:32:57;236.25;;;76.42;;
23001;SDS011;11667;51.706;4.856;2023-02-15T07:35:52;222.48;;;74.42;;
23001;SDS011;11667;51.706;4.856;2023-02-15T07:41:03;255.20;;;76.90;;
23001;SDS011;11667;51.706;4.856;2023-02-15T07:43:34;244.62;;;80.30;;
23001;SDS011;11667;51.706;4.856;2023-02-15T07:48:36;242.47;;;78.37;;
23001;SDS011;11667;51.706;4.856;2023-02-15T07:51:08;243.75;;;79.00;;
23001;SDS011;11667;51.706;4.856;2023-02-15T07:53:38;238.43;;;79.05;;
23001;SDS011;11667;51.706;4.856;2023-02-15T07:56:11;241.90;;;78.60;;
23001;SDS011;11667;51.706;4.856;2023-02-15T07:58:41;251.77;;;80.75;;
23001;SDS011;11667;51.706;4.856;2023-02-15T08:01:24;252.60;;;78.35;;
23001;SDS011;11667;51.706;4.856;2023-02-15T08:03:54;251.45;;;80.57;;
23001;SDS011;11667;51.706;4.856;2023-02-15T08:06:26;237.42;;;80.10;;
23001;SDS011;11667;51.706;4.856;2023-02-15T08:08:57;248.55;;;80.32;;
23001;SDS011;11667;51.706;4.856;2023-02-15T08:11:27;225.32;;;77.17;;
23001;SDS011;11667;51.706;4.856;2023-02-15T08:14:08;237.45;;;78.35;;
23001;SDS011;11667;51.706;4.856;2023-02-15T08:16:39;239.42;;;81.25;;
23001;SDS011;11667;51.706;4.856;2023-02-15T08:19:20;223.70;;;78.30;;
23001;SDS011;11667;51.706;4.856;2023-02-15T08:21:56;206.68;;;76.22;;
23001;SDS011;11667;51.706;4.856;2023-02-15T08:24:27;206.35;;;72.62;;
23001;SDS011;11667;51.706;4.856;2023-02-15T08:26:58;220.63;;;75.22;;
23001;SDS011;11667;51.706;4.856;2023-02-15T08:29:31;214.45;;;75.00;;
23001;SDS011;11667;51.706;4.856;2023-02-15T08:32:04;211.72;;;73.72;;
23001;SDS011;11667;51.706;4.856;2023-02-15T08:34:36;215.95;;;74.80;;
23001;SDS011;11667;51.706;4.856;2023-02-15T08:39:35;195.35;;;69.42;;
23001;SDS011;11667;51.706;4.856;2023-02-15T08:42:05;204.87;;;74.85;;
23001;SDS011;11667;51.706;4.856;2023-02-15T08:44:35;202.80;;;73.72;;
23001;SDS011;11667;51.706;4.856;2023-02-15T08:47:04;193.45;;;70.90;;
23001;SDS011;11667;51.706;4.856;2023-02-15T08:49:34;178.82;;;69.62;;
23001;SDS011;11667;51.706;4.856;2023-02-15T08:52:03;169.75;;;65.52;;
23001;SDS011;11667;51.706;4.856;2023-02-15T08:54:32;149.97;;;62.20;;
23001;SDS011;11667;51.706;4.856;2023-02-15T08:57:02;134.97;;;57.27;;
23001;SDS011;11667;51.706;4.856;2023-02-15T08:59:32;115.28;;;52.75;;
23001;SDS011;11667;51.706;4.856;2023-02-15T09:02:01;95.97;;;46.50;;
23001;SDS011;11667;51.706;4.856;2023-02-15T09:04:31;88.00;;;43.25;;
23001;SDS011;11667;51.706;4.856;2023-02-15T09:07:00;81.65;;;37.83;;
23001;SDS011;11667;51.706;4.856;2023-02-15T09:09:31;73.30;;;36.38;;
23001;SDS011;11667;51.706;4.856;2023-02-15T09:12:01;72.70;;;35.25;;
23001;SDS011;11667;51.706;4.856;2023-02-15T09:14:30;68.17;;;34.00;;
23001;SDS011;11667;51.706;4.856;2023-02-15T09:17:00;65.78;;;33.67;;
23001;SDS011;11667;51.706;4.856;2023-02-15T09:19:29;63.98;;;33.13;;
23001;SDS011;11667;51.706;4.856;2023-02-15T09:21:58;67.97;;;35.00;;
23001;SDS011;11667;51.706;4.856;2023-02-15T09:24:31;64.00;;;32.90;;
23001;SDS011;11667;51.706;4.856;2023-02-15T09:27:01;62.80;;;32.78;;
23001;SDS011;11667;51.706;4.856;2023-02-15T09:29:30;61.23;;;33.20;;
23001;SDS011;11667;51.706;4.856;2023-02-15T09:32:00;58.20;;;32.00;;
23001;SDS011;11667;51.706;4.856;2023-02-15T09:34:29;63.48;;;31.93;;
23001;SDS011;11667;51.706;4.856;2023-02-15T09:37:00;61.15;;;32.90;;
23001;SDS011;11667;51.706;4.856;2023-02-15T09:39:30;60.73;;;32.08;;
23001;SDS011;11667;51.706;4.856;2023-02-15T09:42:10;59.13;;;32.28;;
23001;SDS011;11667;51.706;4.856;2023-02-15T09:53:42;58.38;;;31.87;;
23001;SDS011;11667;51.706;4.856;2023-02-15T09:56:24;58.87;;;31.80;;
23001;SDS011;11667;51.706;4.856;2023-02-15T10:12:53;55.17;;;31.10;;
23001;SDS011;11667;51.706;4.856;2023-02-15T10:21:04;58.35;;;31.40;;
23001;SDS011;11667;51.706;4.856;2023-02-15T10:26:51;60.28;;;32.42;;
23001;SDS011;11667;51.706;4.856;2023-02-15T10:32:16;58.20;;;31.87;;
23001;SDS011;11667;51.706;4.856;2023-02-15T10:37:35;55.52;;;31.37;;
23001;SDS011;11667;51.706;4.856;2023-02-15T10:43:06;59.95;;;31.77;;
23001;SDS011;11667;51.706;4.856;2023-02-15T10:51:02;58.52;;;32.33;;
23001;SDS011;11667;51.706;4.856;2023-02-15T10:56:12;52.98;;;30.68;;
23001;SDS011;11667;51.706;4.856;2023-02-15T10:58:56;59.90;;;31.75;;
23001;SDS011;11667;51.706;4.856;2023-02-15T11:07:12;54.30;;;30.43;;
23001;SDS011;11667;51.706;4.856;2023-02-15T11:09:51;58.17;;;31.30;;
23001;SDS011;11667;51.706;4.856;2023-02-15T11:12:32;53.92;;;30.12;;
23001;SDS011;11667;51.706;4.856;2023-02-15T11:15:11;56.30;;;31.17;;
23001;SDS011;11667;51.706;4.856;2023-02-15T11:17:50;53.85;;;30.27;;
23001;SDS011;11667;51.706;4.856;2023-02-15T11:20:38;57.10;;;31.70;;
23001;SDS011;11667;51.706;4.856;2023-02-15T11:23:14;51.95;;;31.02;;
23001;SDS011;11667;51.706;4.856;2023-02-15T11:25:54;52.13;;;30.08;;
23001;SDS011;11667;51.706;4.856;2023-02-15T11:28:51;54.05;;;30.95;;
23001;SDS011;11667;51.706;4.856;2023-02-15T11:30:56;52.70;;;30.25;;
23001;SDS011;11667;51.706;4.856;2023-02-15T11:33:29;53.17;;;29.45;;
23001;SDS011;11667;51.706;4.856;2023-02-15T11:36:16;52.98;;;30.52;;
23001;SDS011;11667;51.706;4.856;2023-02-15T11:38:48;53.95;;;31.15;;
23001;SDS011;11667;51.706;4.856;2023-02-15T11:41:21;52.13;;;29.77;;
23001;SDS011;11667;51.706;4.856;2023-02-15T11:43:57;54.03;;;30.80;;
23001;SDS011;11667;51.706;4.856;2023-02-15T11:46:36;54.65;;;29.95;;
23001;SDS011;11667;51.706;4.856;2023-02-15T11:49:24;55.08;;;30.27;;
23001;SDS011;11667;51.706;4.856;2023-02-15T11:51:56;53.80;;;30.23;;
23001;SDS011;11667;51.706;4.856;2023-02-15T11:54:28;52.90;;;30.00;;
23001;SDS011;11667;51.706;4.856;2023-02-15T11:57:02;52.93;;;30.35;;
23001;SDS011;11667;51.706;4.856;2023-02-15T12:00:14;55.52;;;30.48;;
23001;SDS011;11667;51.706;4.856;2023-02-15T12:02:30;55.03;;;30.70;;
23001;SDS011;11667;51.706;4.856;2023-02-15T12:05:06;50.60;;;31.07;;
23001;SDS011;11667;51.706;4.856;2023-02-15T12:07:42;52.23;;;30.30;;
23001;SDS011;11667;51.706;4.856;2023-02-15T12:10:25;53.52;;;30.20;;
23001;SDS011;11667;51.706;4.856;2023-02-15T12:13:19;51.85;;;31.12;;
23001;SDS011;11667;51.706;4.856;2023-02-15T12:15:44;51.25;;;28.92;;
23001;SDS011;11667;51.706;4.856;2023-02-15T12:21:07;58.63;;;29.50;;
23001;SDS011;11667;51.706;4.856;2023-02-15T12:26:25;51.45;;;27.50;;
23001;SDS011;11667;51.706;4.856;2023-02-15T12:29:15;50.08;;;27.60;;
23001;SDS011;11667;51.706;4.856;2023-02-15T12:31:46;48.35;;;28.67;;
23001;SDS011;11667;51.706;4.856;2023-02-15T12:36:51;49.23;;;28.30;;
23001;SDS011;11667;51.706;4.856;2023-02-15T12:39:25;49.40;;;28.65;;
23001;SDS011;11667;51.706;4.856;2023-02-15T12:44:30;52.03;;;28.47;;
23001;SDS011;11667;51.706;4.856;2023-02-15T12:49:36;55.43;;;29.05;;
23001;SDS011;11667;51.706;4.856;2023-02-15T12:54:50;54.70;;;29.82;;
23001;SDS011;11667;51.706;4.856;2023-02-15T12:57:27;49.80;;;28.55;;
23001;SDS011;11667;51.706;4.856;2023-02-15T12:59:59;49.27;;;27.75;;
23001;SDS011;11667;51.706;4.856;2023-02-15T13:05:23;54.83;;;28.00;;
23001;SDS011;11667;51.706;4.856;2023-02-15T13:07:54;56.18;;;29.48;;
23001;SDS011;11667;51.706;4.856;2023-02-15T13:10:27;50.33;;;29.05;;
23001;SDS011;11667;51.706;4.856;2023-02-15T13:12:57;52.78;;;30.43;;
23001;SDS011;11667;51.706;4.856;2023-02-15T13:15:29;56.70;;;30.15;;
23001;SDS011;11667;51.706;4.856;2023-02-15T13:18:05;56.55;;;29.87;;
23001;SDS011;11667;51.706;4.856;2023-02-15T13:20:37;56.40;;;30.62;;
23001;SDS011;11667;51.706;4.856;2023-02-15T13:23:13;57.67;;;31.57;;
23001;SDS011;11667;51.706;4.856;2023-02-15T13:25:46;52.00;;;29.30;;
23001;SDS011;11667;51.706;4.856;2023-02-15T13:28:18;53.53;;;29.87;;
23001;SDS011;11667;51.706;4.856;2023-02-15T13:30:49;52.55;;;29.15;;
23001;SDS011;11667;51.706;4.856;2023-02-15T13:33:34;57.13;;;31.02;;
23001;SDS011;11667;51.706;4.856;2023-02-15T13:36:10;59.53;;;30.72;;
23001;SDS011;11667;51.706;4.856;2023-02-15T13:38:46;60.00;;;31.48;;
23001;SDS011;11667;51.706;4.856;2023-02-15T13:41:23;59.08;;;31.55;;
23001;SDS011;11667;51.706;4.856;2023-02-15T13:46:53;56.83;;;30.82;;
23001;SDS011;11667;51.706;4.856;2023-02-15T13:49:41;55.95;;;31.33;;
23001;SDS011;11667;51.706;4.856;2023-02-15T13:52:21;56.92;;;30.90;;
23001;SDS011;11667;51.706;4.856;2023-02-15T13:55:18;64.43;;;32.13;;
23001;SDS011;11667;51.706;4.856;2023-02-15T13:58:01;55.30;;;31.65;;
23001;SDS011;11667;51.706;4.856;2023-02-15T14:00:39;59.40;;;31.95;;
23001;SDS011;11667;51.706;4.856;2023-02-15T14:09:11;59.48;;;32.28;;
23001;SDS011;11667;51.706;4.856;2023-02-15T14:17:26;62.00;;;33.73;;
23001;SDS011;11667;51.706;4.856;2023-02-15T14:20:08;64.97;;;35.10;;
23001;SDS011;11667;51.706;4.856;2023-02-15T14:22:44;62.20;;;32.38;;
23001;SDS011;11667;51.706;4.856;2023-02-15T14:25:25;63.23;;;32.33;;
23001;SDS011;11667;51.706;4.856;2023-02-15T14:28:08;60.40;;;32.67;;
23001;SDS011;11667;51.706;4.856;2023-02-15T14:30:38;62.85;;;33.00;;
23001;SDS011;11667;51.706;4.856;2023-02-15T14:36:03;61.48;;;33.02;;
23001;SDS011;11667;51.706;4.856;2023-02-15T14:38:46;58.35;;;32.23;;
23001;SDS011;11667;51.706;4.856;2023-02-15T14:41:23;63.30;;;31.65;;
23001;SDS011;11667;51.706;4.856;2023-02-15T14:44:45;60.67;;;31.90;;
23001;SDS011;11667;51.706;4.856;2023-02-15T14:46:40;62.73;;;32.05;;
23001;SDS011;11667;51.706;4.856;2023-02-15T14:49:14;61.65;;;32.85;;
23001;SDS011;11667;51.706;4.856;2023-02-15T14:51:56;63.30;;;32.75;;
23001;SDS011;11667;51.706;4.856;2023-02-15T14:59:38;66.80;;;32.80;;
23001;SDS011;11667;51.706;4.856;2023-02-15T15:02:23;64.10;;;32.03;;
23001;SDS011;11667;51.706;4.856;2023-02-15T15:05:01;57.90;;;30.50;;
23001;SDS011;11667;51.706;4.856;2023-02-15T15:07:37;62.38;;;30.72;;
23001;SDS011;11667;51.706;4.856;2023-02-15T15:12:48;64.45;;;32.05;;
23001;SDS011;11667;51.706;4.856;2023-02-15T15:18:06;60.03;;;30.53;;
23001;SDS011;11667;51.706;4.856;2023-02-15T15:34:05;64.92;;;31.52;;
23001;SDS011;11667;51.706;4.856;2023-02-15T15:36:52;59.73;;;30.75;;
23001;SDS011;11667;51.706;4.856;2023-02-15T15:39:34;61.92;;;32.17;;
23001;SDS011;11667;51.706;4.856;2023-02-15T15:42:20;69.80;;;34.18;;
23001;SDS011;11667;51.706;4.856;2023-02-15T15:50:56;69.03;;;31.87;;
23001;SDS011;11667;51.706;4.856;2023-02-15T15:53:27;61.35;;;31.85;;
23001;SDS011;11667;51.706;4.856;2023-02-15T15:56:01;60.48;;;31.20;;
23001;SDS011;11667;51.706;4.856;2023-02-15T15:58:34;65.75;;;32.80;;
23001;SDS011;11667;51.706;4.856;2023-02-15T16:01:08;63.45;;;32.30;;
23001;SDS011;11667;51.706;4.856;2023-02-15T16:03:49;62.70;;;30.77;;
23001;SDS011;11667;51.706;4.856;2023-02-15T16:06:31;61.50;;;31.20;;
23001;SDS011;11667;51.706;4.856;2023-02-15T16:09:45;60.28;;;30.95;;
23001;SDS011;11667;51.706;4.856;2023-02-15T16:11:40;60.95;;;30.80;;
23001;SDS011;11667;51.706;4.856;2023-02-15T16:14:11;60.35;;;30.90;;
23001;SDS011;11667;51.706;4.856;2023-02-15T16:16:45;60.03;;;31.07;;
23001;SDS011;11667;51.706;4.856;2023-02-15T16:19:19;61.68;;;30.25;;
23001;SDS011;11667;51.706;4.856;2023-02-15T16:21:50;59.77;;;31.05;;
23001;SDS011;11667;51.706;4.856;2023-02-15T16:24:37;63.58;;;32.90;;
23001;SDS011;11667;51.706;4.856;2023-02-15T16:27:39;62.80;;;30.52;;
23001;SDS011;11667;51.706;4.856;2023-02-15T16:33:03;57.40;;;28.80;;
23001;SDS011;11667;51.706;4.856;2023-02-15T16:35:35;61.18;;;30.10;;
23001;SDS011;11667;51.706;4.856;2023-02-15T16:38:09;59.75;;;29.20;;
23001;SDS011;11667;51.706;4.856;2023-02-15T16:40:40;61.95;;;30.27;;
23001;SDS011;11667;51.706;4.856;2023-02-15T16:43:15;63.55;;;31.17;;
23001;SDS011;11667;51.706;4.856;2023-02-15T16:45:45;63.42;;;30.90;;
23001;SDS011;11667;51.706;4.856;2023-02-15T16:48:16;61.83;;;30.23;;
23001;SDS011;11667;51.706;4.856;2023-02-15T16:50:54;59.03;;;30.52;;
23001;SDS011;11667;51.706;4.856;2023-02-15T16:53:26;61.68;;;30.45;;
23001;SDS011;11667;51.706;4.856;2023-02-15T16:55:59;63.00;;;31.07;;
23001;SDS011;11667;51.706;4.856;2023-02-15T16:58:41;62.20;;;31.23;;
23001;SDS011;11667;51.706;4.856;2023-02-15T17:01:06;68.12;;;30.32;;
23001;SDS011;11667;51.706;4.856;2023-02-15T17:03:37;61.35;;;30.35;;
23001;SDS011;11667;51.706;4.856;2023-02-15T17:06:24;66.67;;;30.90;;
23001;SDS011;11667;51.706;4.856;2023-02-15T17:09:02;71.17;;;31.25;;
23001;SDS011;11667;51.706;4.856;2023-02-15T17:11:35;67.50;;;31.27;;
23001;SDS011;11667;51.706;4.856;2023-02-15T17:16:42;58.75;;;30.40;;
23001;SDS011;11667;51.706;4.856;2023-02-15T17:19:24;68.80;;;31.52;;
23001;SDS011;11667;51.706;4.856;2023-02-15T17:22:02;67.78;;;31.73;;
23001;SDS011;11667;51.706;4.856;2023-02-15T17:24:35;70.10;;;32.28;;
23001;SDS011;11667;51.706;4.856;2023-02-15T17:27:18;68.02;;;31.85;;
23001;SDS011;11667;51.706;4.856;2023-02-15T17:29:50;65.30;;;32.30;;
23001;SDS011;11667;51.706;4.856;2023-02-15T17:32:22;69.17;;;32.42;;